Time;durP1;ratioP1;P1;durP2;ratioP2;P2;SDS_P1;SDS_P2;PMS_P1;PMS_P2;Temp;Humidity;BMP_temperature;BMP_pressure;BME280_temperature;BME280_humidity;BME280_pressure;Samples;Min_cycle;Max_cycle;Signal;HPM_P1;HPM_P2
2023/12/19 00:03:13;;;;;;;7.77;5.00;;;;;;;;;;10351355;28;20472;-74
2023/12/19 00:08:16;;;;;;;8.40;4.43;;;;;;;;;;10360766;28;20052;-74
2023/12/19 00:13:21;;;;;;;8.95;5.32;;;;;;;;;;10360677;28;20046;-74
2023/12/19 00:18:26;;;;;;;7.63;4.72;;;;;;;;;;10355599;28;20038;-74
2023/12/19 00:23:30;;;;;;;8.88;5.30;;;;;;;;;;10355302;28;20688;-74
2023/12/19 00:28:36;;;;;;;7.60;4.95;;;;;;;;;;10355350;28;20042;-74
2023/12/19 00:33:39;;;;;;;6.75;4.40;;;;;;;;;;10361478;28;20030;-74
2023/12/19 00:38:42;;;;;;;6.13;4.28;;;;;;;;;;10359680;28;20038;-74
2023/12/19 00:43:47;;;;;;;5.90;3.97;;;;;;;;;;10358037;28;20054;-74
2023/12/19 00:48:50;;;;;;;8.38;4.95;;;;;;;;;;10337946;28;20410;-74
2023/12/19 00:53:53;;;;;;;8.20;4.78;;;;;;;;;;10354962;28;20411;-74
2023/12/19 00:58:58;;;;;;;7.75;4.63;;;;;;;;;;10358940;28;20513;-74
2023/12/19 01:04:01;;;;;;;5.65;4.50;;;;;;;;;;10360709;28;20046;-75
2023/12/19 01:09:05;;;;;;;7.07;4.90;;;;;;;;;;10354371;28;20089;-74
2023/12/19 01:14:09;;;;;;;6.97;4.55;;;;;;;;;;10359876;28;20038;-74
2023/12/19 01:19:12;;;;;;;5.88;4.32;;;;;;;;;;10348553;28;20038;-74
2023/12/19 01:24:16;;;;;;;6.03;4.05;;;;;;;;;;10361371;28;20698;-74
2023/12/19 01:29:20;;;;;;;10.32;7.00;;;;;;;;;;10360648;28;20054;-74
2023/12/19 01:34:23;;;;;;;13.60;8.70;;;;;;;;;;10366017;28;20052;-74
2023/12/19 01:39:27;;;;;;;14.02;8.93;;;;;;;;;;10358753;28;20048;-74
2023/12/19 01:44:31;;;;;;;12.60;8.40;;;;;;;;;;10360278;28;20149;-74
2023/12/19 01:49:35;;;;;;;8.70;5.75;;;;;;;;;;10361095;28;20057;-74
2023/12/19 01:54:39;;;;;;;8.93;6.07;;;;;;;;;;10365152;28;20570;-75
2023/12/19 01:59:44;;;;;;;8.70;5.97;;;;;;;;;;10345422;28;20075;-74
2023/12/19 02:04:47;;;;;;;13.77;8.45;;;;;;;;;;10361189;28;20045;-75
2023/12/19 02:09:51;;;;;;;13.25;8.25;;;;;;;;;;10359194;28;20133;-74
2023/12/19 02:14:56;;;;;;;12.15;7.75;;;;;;;;;;10358148;28;20046;-74
2023/12/19 02:20:00;;;;;;;15.85;9.80;;;;;;;;;;10363277;28;20046;-74
2023/12/19 02:25:05;;;;;;;14.80;8.65;;;;;;;;;;10360627;28;20073;-75
2023/12/19 02:30:09;;;;;;;11.60;6.97;;;;;;;;;;10346837;28;20034;-75
2023/12/19 02:35:12;;;;;;;10.80;6.90;;;;;;;;;;10363957;28;20073;-75
2023/12/19 02:40:17;;;;;;;8.98;6.07;;;;;;;;;;10359485;28;20038;-75
2023/12/19 02:45:20;;;;;;;10.23;6.82;;;;;;;;;;10359263;28;20049;-74
2023/12/19 02:50:24;;;;;;;7.28;4.95;;;;;;;;;;10363065;28;20042;-75
2023/12/19 02:55:28;;;;;;;8.25;5.55;;;;;;;;;;10359009;28;20053;-75
2023/12/19 03:00:31;;;;;;;6.50;4.57;;;;;;;;;;10346861;28;20125;-75
2023/12/19 03:05:35;;;;;;;8.05;4.97;;;;;;;;;;10362108;28;20038;-75
2023/12/19 03:10:39;;;;;;;5.88;4.38;;;;;;;;;;10357432;28;20104;-74
2023/12/19 03:15:43;;;;;;;5.90;4.10;;;;;;;;;;10357543;28;20053;-74
2023/12/19 03:20:46;;;;;;;5.10;3.65;;;;;;;;;;10366791;28;20036;-75
2023/12/19 03:25:51;;;;;;;4.88;3.50;;;;;;;;;;10356652;28;20125;-75
2023/12/19 03:30:54;;;;;;;5.85;3.72;;;;;;;;;;10358478;28;20034;-75
2023/12/19 03:35:57;;;;;;;12.25;7.15;;;;;;;;;;10355297;28;20042;-75
2023/12/19 03:41:02;;;;;;;8.27;5.50;;;;;;;;;;10360998;28;20403;-74
2023/12/19 03:46:07;;;;;;;8.27;5.93;;;;;;;;;;10339575;28;20046;-74
2023/12/19 03:51:10;;;;;;;6.03;4.27;;;;;;;;;;10360534;28;20124;-75
2023/12/19 03:56:15;;;;;;;6.53;4.57;;;;;;;;;;10343338;28;20451;-75
2023/12/19 04:01:18;;;;;;;7.88;5.63;;;;;;;;;;10358473;28;20044;-75
2023/12/19 04:06:21;;;;;;;7.90;5.05;;;;;;;;;;10360253;28;20050;-75
2023/12/19 04:11:26;;;;;;;5.13;3.97;;;;;;;;;;10357884;28;20121;-75
2023/12/19 04:16:29;;;;;;;4.55;3.58;;;;;;;;;;10337993;28;20046;-75
2023/12/19 04:21:32;;;;;;;5.30;3.45;;;;;;;;;;10358175;28;20042;-75
2023/12/19 04:26:37;;;;;;;3.65;3.15;;;;;;;;;;10336932;28;20045;-75
2023/12/19 04:31:40;;;;;;;4.05;2.85;;;;;;;;;;10338850;28;20037;-74
2023/12/19 04:36:44;;;;;;;3.53;2.88;;;;;;;;;;10357323;28;20115;-75
2023/12/19 04:41:48;;;;;;;3.58;2.90;;;;;;;;;;10356742;28;20040;-74
2023/12/19 04:46:51;;;;;;;3.25;2.65;;;;;;;;;;10368186;28;20052;-75
2023/12/19 04:51:55;;;;;;;4.90;3.15;;;;;;;;;;10367510;28;20400;-74
2023/12/19 04:57:00;;;;;;;3.78;2.70;;;;;;;;;;10368245;28;20111;-74
2023/12/19 05:02:03;;;;;;;3.97;2.75;;;;;;;;;;10362350;28;20068;-75
2023/12/19 05:07:06;;;;;;;4.18;2.58;;;;;;;;;;10359310;28;20068;-75
2023/12/19 05:12:11;;;;;;;2.85;2.30;;;;;;;;;;10366171;28;20042;-75
2023/12/19 05:17:14;;;;;;;4.03;3.13;;;;;;;;;;10364678;28;20136;-75
2023/12/19 05:22:17;;;;;;;4.05;3.30;;;;;;;;;;10346950;28;20040;-75
2023/12/19 05:27:22;;;;;;;3.65;2.80;;;;;;;;;;10362097;28;20042;-75
2023/12/19 05:32:25;;;;;;;4.20;2.78;;;;;;;;;;10363099;28;20387;-74
2023/12/19 05:37:28;;;;;;;4.82;3.58;;;;;;;;;;10363552;28;20050;-74
2023/12/19 05:42:33;;;;;;;4.90;2.85;;;;;;;;;;10357146;28;20045;-74
2023/12/19 05:47:37;;;;;;;4.50;3.28;;;;;;;;;;10360972;28;20042;-75
2023/12/19 05:52:40;;;;;;;2.97;2.35;;;;;;;;;;10362571;28;20113;-75
2023/12/19 05:57:46;;;;;;;3.50;2.42;;;;;;;;;;10370306;23;20038;-75
2023/12/19 06:02:50;;;;;;;2.30;2.10;;;;;;;;;;10335510;28;20046;-75
2023/12/19 06:07:53;;;;;;;2.00;1.80;;;;;;;;;;10339272;28;20664;-75
2023/12/19 06:12:58;;;;;;;3.45;2.15;;;;;;;;;;10344104;28;20046;-75
2023/12/19 06:18:01;;;;;;;2.65;1.98;;;;;;;;;;10356267;28;20057;-75
2023/12/19 06:23:04;;;;;;;3.58;2.35;;;;;;;;;;10341454;28;20069;-75
2023/12/19 06:28:09;;;;;;;3.78;2.75;;;;;;;;;;10346445;28;20039;-75
2023/12/19 06:33:12;;;;;;;2.45;2.15;;;;;;;;;;10337906;28;20500;-75
2023/12/19 06:38:15;;;;;;;3.45;2.22;;;;;;;;;;10346532;28;20148;-75
2023/12/19 06:43:20;;;;;;;3.50;2.45;;;;;;;;;;10331974;28;20038;-75
2023/12/19 06:48:24;;;;;;;3.67;2.72;;;;;;;;;;10329418;28;20796;-75
2023/12/19 06:53:27;;;;;;;3.90;2.42;;;;;;;;;;10341673;28;20132;-75
2023/12/19 06:58:34;;;;;;;3.53;2.33;;;;;;;;;;10347112;28;20050;-75
2023/12/19 07:03:37;;;;;;;2.67;2.13;;;;;;;;;;10354409;28;20052;-75
2023/12/19 07:08:40;;;;;;;3.75;2.40;;;;;;;;;;10343012;28;20462;-75
2023/12/19 07:13:47;;;;;;;3.37;2.57;;;;;;;;;;10350155;28;20108;-75
2023/12/19 07:18:51;;;;;;;3.45;2.25;;;;;;;;;;10343302;28;20052;-75
2023/12/19 07:23:55;;;;;;;3.55;2.40;;;;;;;;;;10342312;28;20034;-75
2023/12/19 07:29:00;;;;;;;2.80;2.30;;;;;;;;;;10341564;28;20046;-75
2023/12/19 07:34:06;;;;;;;2.45;2.13;;;;;;;;;;10351636;28;20039;-75
2023/12/19 07:39:10;;;;;;;2.00;1.55;;;;;;;;;;10335125;28;20046;-75
2023/12/19 07:44:16;;;;;;;1.85;1.50;;;;;;;;;;10337547;28;20362;-75
2023/12/19 07:49:19;;;;;;;1.73;1.35;;;;;;;;;;10342569;28;20132;-75
2023/12/19 07:54:22;;;;;;;3.25;1.90;;;;;;;;;;10336469;28;20112;-75
2023/12/19 07:59:27;;;;;;;1.92;1.58;;;;;;;;;;10337524;28;20046;-75
2023/12/19 08:04:31;;;;;;;2.17;1.50;;;;;;;;;;10341242;28;20141;-75
2023/12/19 08:09:34;;;;;;;2.92;1.20;;;;;;;;;;10341159;28;20067;-75
2023/12/19 08:14:39;;;;;;;2.90;1.60;;;;;;;;;;10340349;28;20052;-76
2023/12/19 08:19:42;;;;;;;1.50;1.27;;;;;;;;;;10363044;28;20038;-75
2023/12/19 08:24:45;;;;;;;1.83;1.45;;;;;;;;;;10345125;28;20046;-75
2023/12/19 08:29:50;;;;;;;2.85;1.90;;;;;;;;;;10350893;28;20064;-75
2023/12/19 08:34:54;;;;;;;1.52;1.17;;;;;;;;;;10359859;28;20048;-75
2023/12/19 08:39:57;;;;;;;1.55;1.45;;;;;;;;;;10357046;28;20050;-75
2023/12/19 08:45:02;;;;;;;1.50;1.40;;;;;;;;;;10353057;28;20490;-75
2023/12/19 08:50:09;;;;;;;3.20;1.88;;;;;;;;;;10334484;28;20046;-74
2023/12/19 08:55:13;;;;;;;2.35;1.75;;;;;;;;;;10342127;28;20534;-75
2023/12/19 09:00:21;;;;;;;1.92;1.58;;;;;;;;;;10363090;28;20070;-75
2023/12/19 09:05:24;;;;;;;1.63;1.50;;;;;;;;;;10357396;28;20053;-75
2023/12/19 09:10:27;;;;;;;1.90;1.27;;;;;;;;;;10342879;28;20045;-75
2023/12/19 09:15:32;;;;;;;2.28;1.70;;;;;;;;;;10357809;28;20050;-75
2023/12/19 09:20:35;;;;;;;2.45;1.80;;;;;;;;;;10341653;28;20038;-75
2023/12/19 09:25:39;;;;;;;1.52;1.38;;;;;;;;;;10331764;28;20044;-75
2023/12/19 09:30:43;;;;;;;1.73;1.60;;;;;;;;;;10334967;28;20136;-75
2023/12/19 09:35:46;;;;;;;2.70;1.88;;;;;;;;;;10327920;28;20396;-75
2023/12/19 09:40:50;;;;;;;1.77;1.48;;;;;;;;;;10326486;28;20053;-75
2023/12/19 09:45:55;;;;;;;2.15;1.38;;;;;;;;;;10322892;28;20055;-75
2023/12/19 09:51:01;;;;;;;2.03;1.30;;;;;;;;;;10325537;28;20073;-75
2023/12/19 09:56:05;;;;;;;3.08;1.40;;;;;;;;;;10320714;28;20054;-75
2023/12/19 10:01:10;;;;;;;3.28;1.50;;;;;;;;;;10318879;28;20511;-75
2023/12/19 10:06:14;;;;;;;2.33;1.43;;;;;;;;;;10328330;28;20141;-74
2023/12/19 10:11:18;;;;;;;1.85;1.30;;;;;;;;;;10333202;28;20043;-74
2023/12/19 10:16:23;;;;;;;1.80;1.60;;;;;;;;;;10348162;28;20063;-75
2023/12/19 10:21:28;;;;;;;2.10;1.60;;;;;;;;;;10331011;28;20049;-75
2023/12/19 10:26:33;;;;;;;4.38;2.20;;;;;;;;;;10337935;28;20384;-75
2023/12/19 10:31:37;;;;;;;2.50;1.77;;;;;;;;;;10340319;28;20161;-75
2023/12/19 10:36:41;;;;;;;1.90;1.70;;;;;;;;;;10340382;28;20095;-75
2023/12/19 10:41:44;;;;;;;1.58;1.20;;;;;;;;;;10337723;28;20034;-75
2023/12/19 10:46:49;;;;;;;2.60;1.52;;;;;;;;;;10335704;28;20046;-75
2023/12/19 10:51:57;;;;;;;1.48;1.38;;;;;;;;;;10343842;28;20057;-75
2023/12/19 10:57:06;;;;;;;2.30;1.60;;;;;;;;;;10347604;28;20115;-75
2023/12/19 11:02:21;;;;;;;1.63;1.48;;;;;;;;;;10330028;28;20115;-74
2023/12/19 11:07:27;;;;;;;1.73;1.42;;;;;;;;;;10343722;28;20470;-75
2023/12/19 11:12:31;;;;;;;2.30;1.60;;;;;;;;;;10339708;28;20149;-75
2023/12/19 11:17:39;;;;;;;2.63;1.67;;;;;;;;;;10340179;28;20582;-74
2023/12/19 11:22:53;;;;;;;2.13;1.50;;;;;;;;;;10330223;28;20487;-75
2023/12/19 11:28:01;;;;;;;1.40;1.20;;;;;;;;;;10332662;28;20043;-74
2023/12/19 11:33:07;;;;;;;2.17;1.55;;;;;;;;;;10344451;28;20057;-74
2023/12/19 11:38:29;;;;;;;1.50;1.30;;;;;;;;;;10341415;28;20034;-75
2023/12/19 11:43:55;;;;;;;1.20;1.10;;;;;;;;;;10339641;28;20046;-74
2023/12/19 11:49:00;;;;;;;1.30;1.20;;;;;;;;;;10345045;28;20403;-75
2023/12/19 11:54:03;;;;;;;1.15;1.02;;;;;;;;;;10344644;28;20073;-74
2023/12/19 11:59:08;;;;;;;1.80;1.35;;;;;;;;;;10333320;28;20107;-75
2023/12/19 12:04:13;;;;;;;2.50;1.55;;;;;;;;;;10342434;28;20039;-75
2023/12/19 12:09:19;;;;;;;1.70;1.40;;;;;;;;;;10349236;28;20093;-74
2023/12/19 12:14:22;;;;;;;1.00;0.90;;;;;;;;;;10343487;28;20431;-74
2023/12/19 12:19:27;;;;;;;1.27;1.08;;;;;;;;;;10341063;28;20109;-75
2023/12/19 12:24:32;;;;;;;1.77;1.50;;;;;;;;;;10339604;28;20519;-75
2023/12/19 12:29:38;;;;;;;1.53;1.40;;;;;;;;;;10341768;28;20149;-74
2023/12/19 12:34:44;;;;;;;1.55;1.20;;;;;;;;;;10349278;28;20050;-75
2023/12/19 12:39:47;;;;;;;2.77;1.77;;;;;;;;;;10336931;28;20117;-74
2023/12/19 12:45:00;;;;;;;1.92;1.48;;;;;;;;;;10331200;28;20049;-75
2023/12/19 12:50:06;;;;;;;2.65;1.63;;;;;;;;;;10329747;28;20042;-75
2023/12/19 12:55:12;;;;;;;1.42;1.33;;;;;;;;;;10345684;28;20553;-74
2023/12/19 13:00:16;;;;;;;;;;;;;;;;;;10333999;28;20043;-74
2023/12/19 13:05:23;;;;;;;;;;;;;;;;;;10347486;28;19926;-75
2023/12/19 13:10:26;;;;;;;1.55;1.15;;;;;;;;;;10354840;28;19925;-74
2023/12/19 13:15:32;;;;;;;1.10;1.00;;;;;;;;;;10342422;28;20052;-74
2023/12/19 13:20:37;;;;;;;0.90;0.90;;;;;;;;;;10325622;28;20407;-75
2023/12/19 13:25:41;;;;;;;3.08;1.90;;;;;;;;;;10351811;28;20038;-75
2023/12/19 13:30:44;;;;;;;2.85;2.28;;;;;;;;;;10331728;28;20038;-74
2023/12/19 13:35:49;;;;;;;2.10;1.70;;;;;;;;;;10334458;28;20037;-74
2023/12/19 13:40:52;;;;;;;1.95;1.63;;;;;;;;;;10332107;28;20048;-74
2023/12/19 13:45:55;;;;;;;3.97;2.50;;;;;;;;;;10338136;28;20046;-74
2023/12/19 13:51:00;;;;;;;5.07;2.08;;;;;;;;;;10347615;28;20038;-74
2023/12/19 13:56:04;;;;;;;2.28;1.65;;;;;;;;;;10345366;28;20058;-74
2023/12/19 14:01:08;;;;;;;2.95;2.25;;;;;;;;;;10349771;28;20702;-75
2023/12/19 14:06:12;;;;;;;2.55;1.80;;;;;;;;;;10336026;28;20050;-75
2023/12/19 14:11:18;;;;;;;1.73;1.40;;;;;;;;;;10335170;28;20380;-75
2023/12/19 14:16:22;;;;;;;1.63;1.30;;;;;;;;;;10333262;28;20458;-75
2023/12/19 14:21:26;;;;;;;3.08;2.17;;;;;;;;;;10333513;28;20301;-74
2023/12/19 14:26:30;;;;;;;2.67;1.98;;;;;;;;;;10353816;28;20054;-74
2023/12/19 14:31:33;;;;;;;2.20;1.77;;;;;;;;;;10343580;28;20678;-75
2023/12/19 14:36:38;;;;;;;3.67;2.50;;;;;;;;;;10346002;28;20048;-75
2023/12/19 14:41:41;;;;;;;2.97;2.08;;;;;;;;;;10342635;28;20125;-74
2023/12/19 14:46:44;;;;;;;2.42;1.80;;;;;;;;;;10339069;28;20045;-75
2023/12/19 14:51:49;;;;;;;2.10;1.60;;;;;;;;;;10333314;28;20049;-74
2023/12/19 14:56:53;;;;;;;2.33;1.60;;;;;;;;;;10337094;28;20403;-74
2023/12/19 15:01:57;;;;;;;2.33;1.45;;;;;;;;;;10336877;28;20453;-75
2023/12/19 15:07:02;;;;;;;3.92;2.08;;;;;;;;;;10330805;28;20447;-75
2023/12/19 15:12:06;;;;;;;4.53;2.00;;;;;;;;;;10341540;28;20577;-75
2023/12/19 15:17:10;;;;;;;2.80;1.90;;;;;;;;;;10332005;28;20559;-75
2023/12/19 15:22:14;;;;;;;5.00;2.05;;;;;;;;;;10345516;28;20038;-75
2023/12/19 15:27:19;;;;;;;3.45;2.63;;;;;;;;;;10338480;28;20100;-75
2023/12/19 15:32:23;;;;;;;3.65;2.00;;;;;;;;;;10354670;28;20469;-75
2023/12/19 15:37:27;;;;;;;2.13;1.92;;;;;;;;;;10346494;28;20042;-75
2023/12/19 15:42:30;;;;;;;3.33;2.40;;;;;;;;;;10344674;28;20045;-75
2023/12/19 15:47:34;;;;;;;3.13;2.45;;;;;;;;;;10346374;28;20125;-75
2023/12/19 15:52:39;;;;;;;3.28;2.30;;;;;;;;;;10349255;28;20044;-75
2023/12/19 15:57:42;;;;;;;3.40;2.60;;;;;;;;;;10340439;28;20053;-75
2023/12/19 16:02:45;;;;;;;2.60;2.05;;;;;;;;;;10354048;28;20041;-75
2023/12/19 16:07:51;;;;;;;3.33;2.22;;;;;;;;;;10354519;28;20061;-75
2023/12/19 16:12:54;;;;;;;3.65;2.08;;;;;;;;;;10338957;28;20403;-75
2023/12/19 16:17:57;;;;;;;4.13;2.45;;;;;;;;;;10349293;28;20650;-75
2023/12/19 16:23:02;;;;;;;2.78;2.10;;;;;;;;;;10340604;28;20054;-75
2023/12/19 16:28:10;;;;;;;4.63;2.75;;;;;;;;;;10334989;28;20471;-74
2023/12/19 16:33:13;;;;;;;3.75;2.05;;;;;;;;;;10346779;28;20137;-74
2023/12/19 16:38:18;;;;;;;4.55;2.85;;;;;;;;;;10344139;28;20041;-75
2023/12/19 16:43:22;;;;;;;4.05;2.75;;;;;;;;;;10345899;28;20058;-75
2023/12/19 16:48:25;;;;;;;4.53;2.40;;;;;;;;;;10355524;28;20484;-74
2023/12/19 16:53:30;;;;;;;3.22;2.30;;;;;;;;;;10348638;28;20046;-75
2023/12/19 16:58:33;;;;;;;3.10;2.22;;;;;;;;;;10343326;28;20137;-75
2023/12/19 17:03:38;;;;;;;3.33;2.53;;;;;;;;;;10350512;28;20053;-75
2023/12/19 17:08:43;;;;;;;4.05;2.28;;;;;;;;;;10347054;28;20499;-74
2023/12/19 17:13:46;;;;;;;2.50;1.80;;;;;;;;;;10352652;28;20050;-74
2023/12/19 17:18:49;;;;;;;2.92;2.00;;;;;;;;;;10348839;28;20132;-74
2023/12/19 17:23:54;;;;;;;3.03;1.60;;;;;;;;;;10356800;28;20679;-75
2023/12/19 17:28:57;;;;;;;1.80;1.52;;;;;;;;;;10351077;28;20133;-74
2023/12/19 17:34:01;;;;;;;3.60;1.48;;;;;;;;;;10351868;28;20129;-74
2023/12/19 17:39:05;;;;;;;2.03;1.73;;;;;;;;;;10352192;28;20380;-74
2023/12/19 17:44:08;;;;;;;1.50;1.40;;;;;;;;;;10353617;28;20165;-74
2023/12/19 17:49:12;;;;;;;3.05;1.90;;;;;;;;;;10334333;28;20134;-74
2023/12/19 17:54:16;;;;;;;2.63;2.20;;;;;;;;;;10348610;28;20042;-74
2023/12/19 17:59:20;;;;;;;2.63;2.03;;;;;;;;;;10320700;23;20106;-74
2023/12/19 18:04:23;;;;;;;2.63;2.00;;;;;;;;;;10301490;28;20504;-74
2023/12/19 18:09:28;;;;;;;4.57;2.05;;;;;;;;;;10297538;28;20136;-74
2023/12/19 18:14:31;;;;;;;6.57;3.30;;;;;;;;;;10303092;28;20050;-74
2023/12/19 18:19:34;;;;;;;3.88;2.47;;;;;;;;;;10287916;28;20053;-74
2023/12/19 18:24:39;;;;;;;7.68;3.67;;;;;;;;;;10308371;28;20770;-74
2023/12/19 18:29:44;;;;;;;3.92;2.67;;;;;;;;;;10308732;28;20067;-75
2023/12/19 18:34:48;;;;;;;4.97;2.78;;;;;;;;;;10293440;28;20058;-75
2023/12/19 18:39:52;;;;;;;5.50;3.50;;;;;;;;;;10292071;28;20058;-75
2023/12/19 18:44:55;;;;;;;4.57;2.65;;;;;;;;;;10306489;28;20128;-75
2023/12/19 18:49:59;;;;;;;3.63;2.67;;;;;;;;;;10300623;28;20504;-75
2023/12/19 18:55:04;;;;;;;2.97;1.95;;;;;;;;;;10313797;28;20054;-75
2023/12/19 19:00:09;;;;;;;3.15;1.90;;;;;;;;;;10297946;28;20050;-75
2023/12/19 19:05:12;;;;;;;4.88;2.38;;;;;;;;;;10299349;28;20411;-75
2023/12/19 19:10:17;;;;;;;4.22;2.40;;;;;;;;;;10294766;28;20105;-75
2023/12/19 19:15:20;;;;;;;3.50;2.15;;;;;;;;;;10304979;28;20043;-74
2023/12/19 19:20:34;;;;;;;2.00;1.80;;;;;;;;;;10308279;28;20106;-74
2023/12/19 19:25:39;;;;;;;4.40;2.70;;;;;;;;;;10305153;28;20038;-74
2023/12/19 19:30:43;;;;;;;5.68;2.03;;;;;;;;;;10303276;28;20046;-75
2023/12/19 19:35:46;;;;;;;1.95;1.30;;;;;;;;;;10304475;28;20065;-75
2023/12/19 19:40:52;;;;;;;2.97;1.40;;;;;;;;;;10302475;28;20053;-75
2023/12/19 19:46:01;;;;;;;1.20;1.10;;;;;;;;;;10299437;28;20424;-75
2023/12/19 19:51:06;;;;;;;1.85;1.10;;;;;;;;;;10303849;28;20058;-75
2023/12/19 19:56:11;;;;;;;1.00;0.90;;;;;;;;;;10304217;28;20073;-75
2023/12/19 20:01:15;;;;;;;2.08;1.10;;;;;;;;;;10291434;28;20051;-75
2023/12/19 20:06:18;;;;;;;2.25;0.90;;;;;;;;;;10305199;28;20053;-75
2023/12/19 20:11:23;;;;;;;0.90;0.88;;;;;;;;;;10302076;28;20097;-75
2023/12/19 20:16:26;;;;;;;1.27;0.90;;;;;;;;;;10290853;28;20047;-74
2023/12/19 20:21:29;;;;;;;2.95;0.63;;;;;;;;;;10297371;28;20431;-74
2023/12/19 20:26:40;;;;;;;1.77;0.70;;;;;;;;;;10303496;28;20053;-75
2023/12/19 20:31:43;;;;;;;1.17;0.95;;;;;;;;;;10298046;28;20047;-75
2023/12/19 20:36:47;;;;;;;0.88;0.88;;;;;;;;;;10297007;28;20044;-75
2023/12/19 20:41:51;;;;;;;1.70;1.10;;;;;;;;;;10296402;28;20054;-75
2023/12/19 20:46:55;;;;;;;1.15;1.05;;;;;;;;;;10304198;28;20057;-75
2023/12/19 20:51:59;;;;;;;0.93;0.60;;;;;;;;;;10284929;28;20050;-75
2023/12/19 20:57:05;;;;;;;2.50;1.25;;;;;;;;;;10309619;28;20054;-75
2023/12/19 21:02:09;;;;;;;2.47;1.23;;;;;;;;;;10295761;28;20190;-74
2023/12/19 21:07:14;;;;;;;0.80;0.80;;;;;;;;;;10281890;28;20043;-75
2023/12/19 21:12:19;;;;;;;0.90;0.90;;;;;;;;;;10295190;28;20043;-75
2023/12/19 21:17:23;;;;;;;1.13;0.90;;;;;;;;;;10294271;28;20809;-75
2023/12/19 21:22:26;;;;;;;1.85;1.13;;;;;;;;;;10293040;28;20459;-74
2023/12/19 21:27:31;;;;;;;1.88;0.90;;;;;;;;;;10312290;28;20579;-75
2023/12/19 21:32:34;;;;;;;0.77;0.77;;;;;;;;;;10313175;28;20054;-75
2023/12/19 21:37:37;;;;;;;0.80;0.80;;;;;;;;;;10313452;28;20137;-75
2023/12/19 21:42:42;;;;;;;0.93;0.82;;;;;;;;;;10294800;28;20039;-74
2023/12/19 21:47:47;;;;;;;2.45;1.90;;;;;;;;;;10314022;28;20109;-75
2023/12/19 21:52:50;;;;;;;2.58;1.80;;;;;;;;;;10301406;28;20463;-75
2023/12/19 21:57:55;;;;;;;1.45;1.05;;;;;;;;;;10308897;28;20047;-75
2023/12/19 22:02:58;;;;;;;0.93;0.90;;;;;;;;;;10306648;28;20045;-75
2023/12/19 22:08:01;;;;;;;0.80;0.80;;;;;;;;;;10308099;28;20149;-74
2023/12/19 22:13:06;;;;;;;1.00;0.98;;;;;;;;;;10292577;28;20051;-74
2023/12/19 22:18:09;;;;;;;1.20;1.00;;;;;;;;;;10311146;28;20047;-75
2023/12/19 22:23:12;;;;;;;0.98;0.88;;;;;;;;;;10306799;28;20104;-75
2023/12/19 22:28:17;;;;;;;0.70;0.70;;;;;;;;;;10308283;28;20053;-74
2023/12/19 22:33:20;;;;;;;1.33;0.70;;;;;;;;;;10296054;28;20127;-75
2023/12/19 22:38:23;;;;;;;0.50;0.50;;;;;;;;;;10299665;28;20043;-75
2023/12/19 22:43:29;;;;;;;0.63;0.60;;;;;;;;;;10300159;28;20042;-75
2023/12/19 22:48:32;;;;;;;0.50;0.50;;;;;;;;;;10290712;28;20452;-74
2023/12/19 22:53:35;;;;;;;0.60;0.60;;;;;;;;;;10289043;28;20069;-75
2023/12/19 22:58:40;;;;;;;0.75;0.70;;;;;;;;;;10295082;28;20045;-75
2023/12/19 23:03:43;;;;;;;0.57;0.57;;;;;;;;;;10286328;28;20049;-74
2023/12/19 23:08:47;;;;;;;0.70;0.70;;;;;;;;;;10285498;28;20070;-75
2023/12/19 23:13:52;;;;;;;1.10;0.70;;;;;;;;;;10284192;28;20086;-75
2023/12/19 23:18:56;;;;;;;0.70;0.70;;;;;;;;;;10291199;28;20050;-74
2023/12/19 23:23:59;;;;;;;1.17;0.90;;;;;;;;;;10289692;28;20560;-75
2023/12/19 23:29:03;;;;;;;0.63;0.50;;;;;;;;;;10283241;28;20039;-75
2023/12/19 23:34:07;;;;;;;0.98;0.60;;;;;;;;;;10289104;28;20047;-75
2023/12/19 23:39:10;;;;;;;0.50;0.50;;;;;;;;;;10309673;28;20042;-75
2023/12/19 23:44:14;;;;;;;0.45;0.45;;;;;;;;;;10307345;28;20050;-74
2023/12/19 23:49:18;;;;;;;0.50;0.50;;;;;;;;;;10287987;28;20046;-75
2023/12/19 23:54:21;;;;;;;0.40;0.40;;;;;;;;;;10288116;28;20591;-74
2023/12/19 23:59:25;;;;;;;1.48;0.50;;;;;;;;;;10394587;23;20556;-75
